createdAt,value
2024-05-09T00:00:30.274Z,69.00
2024-05-09T00:03:02.391Z,69.06
2024-05-09T00:05:29.011Z,68.90
2024-05-09T00:07:55.636Z,69.16
2024-05-09T00:10:29.071Z,69.29
2024-05-09T00:13:01.897Z,69.51
2024-05-09T00:15:28.374Z,69.24
2024-05-09T00:17:54.911Z,69.13
2024-05-09T00:20:28.103Z,70.05
2024-05-09T00:23:00.011Z,69.56
2024-05-09T00:25:26.525Z,69.28
2024-05-09T00:27:53.000Z,69.86
2024-05-09T00:30:27.939Z,70.22
2024-05-09T00:32:59.778Z,70.33
2024-05-09T00:35:26.514Z,69.84
2024-05-09T00:37:53.090Z,70.51
2024-05-09T00:40:30.672Z,70.91
2024-05-09T00:43:04.623Z,70.89
2024-05-09T00:45:31.083Z,71.61
2024-05-09T00:47:57.791Z,71.71
2024-05-09T00:50:29.982Z,72.20
2024-05-09T00:53:02.516Z,72.97
2024-05-09T00:55:29.073Z,74.05
2024-05-09T00:57:55.525Z,74.27
2024-05-09T01:00:27.407Z,74.51
2024-05-09T01:03:02.223Z,73.80
2024-05-09T01:05:28.876Z,73.64
2024-05-09T01:07:55.430Z,74.02
2024-05-09T01:10:28.018Z,74.35
2024-05-09T01:13:00.377Z,74.32
2024-05-09T01:15:26.933Z,75.38
2024-05-09T01:17:53.543Z,75.01
2024-05-09T01:20:27.749Z,74.43
2024-05-09T01:23:03.734Z,75.46
2024-05-09T01:25:30.234Z,76.13
2024-05-09T01:27:56.690Z,77.45
2024-05-09T01:30:31.283Z,77.39
2024-05-09T01:33:00.953Z,77.04
2024-05-09T01:35:27.816Z,77.66
2024-05-09T01:37:54.383Z,78.04
2024-05-09T01:40:28.423Z,78.08
2024-05-09T01:43:00.412Z,77.98
2024-05-09T01:45:26.858Z,78.13
2024-05-09T01:47:53.469Z,77.17
2024-05-09T01:50:28.995Z,77.91
2024-05-09T01:53:03.071Z,78.54
2024-05-09T01:55:29.625Z,78.46
2024-05-09T01:57:56.084Z,78.86
2024-05-09T02:00:30.810Z,79.24
2024-05-09T02:03:04.902Z,79.35
2024-05-09T02:05:31.627Z,79.41
2024-05-09T02:07:58.186Z,79.72
2024-05-09T02:10:31.745Z,79.27
2024-05-09T02:12:59.354Z,80.80
2024-05-09T02:15:25.816Z,81.33
2024-05-09T02:17:52.566Z,80.71
2024-05-09T02:20:29.749Z,80.63
2024-05-09T02:23:01.711Z,80.60
2024-05-09T02:25:28.208Z,81.29
2024-05-09T02:27:54.683Z,81.18
2024-05-09T02:30:29.951Z,81.65
2024-05-09T02:33:04.804Z,81.43
2024-05-09T02:35:31.534Z,80.95
2024-05-09T02:37:58.090Z,81.16
2024-05-09T02:40:33.254Z,80.77
2024-05-09T02:43:03.641Z,80.88
2024-05-09T02:45:30.140Z,81.18
2024-05-09T02:47:56.783Z,81.27
2024-05-09T02:50:30.234Z,80.87
2024-05-09T02:53:03.749Z,80.67
2024-05-09T02:55:30.282Z,80.18
2024-05-09T02:57:56.756Z,80.08
2024-05-09T03:00:29.779Z,80.33
2024-05-09T03:03:04.206Z,80.35
2024-05-09T03:05:31.012Z,80.90
2024-05-09T03:07:57.602Z,80.96
2024-05-09T03:10:28.504Z,80.65
2024-05-09T03:12:55.711Z,79.73
2024-05-09T03:15:22.397Z,79.76
2024-05-09T03:17:49.053Z,79.23
2024-05-09T03:20:23.219Z,79.10
2024-05-09T03:22:52.710Z,78.99
2024-05-09T03:25:20.523Z,80.48
2024-05-09T03:27:47.026Z,80.37
2024-05-09T03:30:25.907Z,79.82
2024-05-09T03:33:00.050Z,79.46
2024-05-09T03:35:26.825Z,80.12
2024-05-09T03:37:53.412Z,80.45
2024-05-09T03:40:23.812Z,81.06
2024-05-09T03:42:53.093Z,82.35
2024-05-09T03:45:19.607Z,82.07
2024-05-09T03:47:46.448Z,82.04
2024-05-09T03:50:21.930Z,83.68
2024-05-09T03:52:52.432Z,84.71
2024-05-09T03:55:18.990Z,86.04
2024-05-09T03:57:45.495Z,86.12
2024-05-09T04:00:17.923Z,85.77
2024-05-09T04:02:51.975Z,86.07
2024-05-09T04:05:18.560Z,86.43
2024-05-09T04:07:45.101Z,86.09
2024-05-09T04:10:20.917Z,85.91
2024-05-09T04:12:54.224Z,86.58
2024-05-09T04:15:20.747Z,87.06
2024-05-09T04:17:47.367Z,86.52
2024-05-09T04:20:24.201Z,87.23
2024-05-09T04:22:59.753Z,88.22
2024-05-09T04:25:26.245Z,87.43
2024-05-09T04:27:52.729Z,87.09
2024-05-09T04:30:26.284Z,85.59
2024-05-09T04:33:01.412Z,85.82
2024-05-09T04:35:28.098Z,84.25
2024-05-09T04:37:54.761Z,83.27
2024-05-09T04:40:28.338Z,83.46
2024-05-09T04:42:59.963Z,83.10
2024-05-09T04:45:26.426Z,82.79
2024-05-09T04:47:53.216Z,82.88
2024-05-09T04:50:29.321Z,82.87
2024-05-09T04:53:02.142Z,83.11
2024-05-09T04:55:28.664Z,82.66
2024-05-09T04:57:55.117Z,82.55
2024-05-09T05:00:28.856Z,82.64
2024-05-09T05:03:02.056Z,82.10
2024-05-09T05:05:28.722Z,81.83
2024-05-09T05:07:55.305Z,81.67
2024-05-09T05:10:29.442Z,81.53
2024-05-09T05:13:01.743Z,81.86
2024-05-09T05:15:28.208Z,81.17
2024-05-09T05:17:54.793Z,82.51
2024-05-09T05:20:27.773Z,81.89
2024-05-09T05:22:59.597Z,82.19
2024-05-09T05:25:26.210Z,82.53
2024-05-09T05:27:52.735Z,83.95
2024-05-09T05:30:24.995Z,82.39
2024-05-09T05:32:55.530Z,82.91
2024-05-09T05:35:22.157Z,81.77
2024-05-09T05:37:48.653Z,83.65
2024-05-09T05:40:25.021Z,83.21
2024-05-09T05:42:58.769Z,83.48
2024-05-09T05:45:25.251Z,82.92
2024-05-09T05:47:51.829Z,82.64
2024-05-09T05:50:27.248Z,82.15
2024-05-09T05:52:59.449Z,82.25
2024-05-09T05:55:25.931Z,82.77
2024-05-09T05:57:52.386Z,82.99
2024-05-09T06:00:28.998Z,82.04
2024-05-09T06:03:01.703Z,82.21
2024-05-09T06:05:28.353Z,82.86
2024-05-09T06:07:54.861Z,82.21
2024-05-09T06:10:25.786Z,82.60
2024-05-09T06:12:56.712Z,81.71
2024-05-09T06:15:23.162Z,82.19
2024-05-09T06:17:49.776Z,81.34
2024-05-09T06:20:23.424Z,81.01
2024-05-09T06:22:54.064Z,80.51
2024-05-09T06:25:20.570Z,80.73
2024-05-09T06:27:47.044Z,80.18
2024-05-09T06:30:24.900Z,79.76
2024-05-09T06:32:56.211Z,79.67
2024-05-09T06:35:22.773Z,77.54
2024-05-09T06:37:49.328Z,78.12
2024-05-09T06:40:21.214Z,77.53
2024-05-09T06:42:51.756Z,75.76
2024-05-09T06:45:18.227Z,75.54
2024-05-09T06:47:44.831Z,76.82
2024-05-09T06:50:19.705Z,76.33
2024-05-09T06:52:50.113Z,75.34
2024-05-09T06:55:16.586Z,75.20
2024-05-09T06:57:43.218Z,75.99
2024-05-09T07:00:15.510Z,76.33
2024-05-09T07:02:45.557Z,78.26
2024-05-09T07:05:12.221Z,78.90
2024-05-09T07:07:38.771Z,80.92
2024-05-09T07:10:07.774Z,80.00
2024-05-09T07:12:36.414Z,79.48
2024-05-09T07:15:03.031Z,80.15
2024-05-09T07:17:29.832Z,82.04
2024-05-09T07:19:56.423Z,83.82
2024-05-09T07:22:22.930Z,83.60
2024-05-09T07:24:49.375Z,83.71
2024-05-09T07:27:15.828Z,83.10
2024-05-09T07:29:42.346Z,83.21
2024-05-09T07:32:08.886Z,82.70
2024-05-09T07:34:35.474Z,82.00
2024-05-09T07:37:02.139Z,80.43
2024-05-09T07:39:28.743Z,80.18
2024-05-09T07:41:55.190Z,79.92
2024-05-09T07:44:21.721Z,82.08
2024-05-09T07:47:48.686Z,82.40
2024-05-09T07:53:27.135Z,81.82
2024-05-09T07:54:50.557Z,80.43
2024-05-09T07:57:17.356Z,81.10
2024-05-09T07:59:43.888Z,80.85
2024-05-09T08:02:10.587Z,79.82
2024-05-09T08:04:37.242Z,79.36
2024-05-09T08:07:03.876Z,78.36
2024-05-09T08:09:30.380Z,78.75
2024-05-09T08:11:56.915Z,78.56
2024-05-09T08:14:23.400Z,78.77
2024-05-09T08:16:49.897Z,76.76
2024-05-09T08:19:16.486Z,76.67
2024-05-09T08:21:43.025Z,76.62
2024-05-09T08:24:09.532Z,78.60
2024-05-09T08:26:36.024Z,75.71
2024-05-09T08:29:02.475Z,75.99
2024-05-09T08:31:29.080Z,77.42
2024-05-09T08:33:55.804Z,78.75
2024-05-09T08:36:22.370Z,78.85
2024-05-09T08:38:48.832Z,78.01
2024-05-09T08:41:15.371Z,75.75
2024-05-09T08:43:42.171Z,73.46
2024-05-09T08:46:08.789Z,73.17
2024-05-09T08:48:35.664Z,75.11
2024-05-09T08:51:02.327Z,73.82
2024-05-09T08:53:28.800Z,73.30
2024-05-09T08:55:55.269Z,73.33
2024-05-09T08:58:21.772Z,74.72
2024-05-09T09:00:48.887Z,72.53
2024-05-09T09:03:16.050Z,71.23
2024-05-09T09:05:43.676Z,73.63
2024-05-09T09:08:10.221Z,73.52
2024-05-09T09:10:36.836Z,73.64
2024-05-09T09:13:03.441Z,71.97
2024-05-09T09:15:29.988Z,72.71
2024-05-09T09:17:56.508Z,71.02
2024-05-09T09:20:29.136Z,74.63
2024-05-09T09:23:01.878Z,65.75
2024-05-09T09:25:28.323Z,68.33
2024-05-09T09:27:54.856Z,67.10
2024-05-09T09:30:34.422Z,66.22
2024-05-09T09:33:04.153Z,65.57
2024-05-09T09:35:30.719Z,64.97
2024-05-09T09:37:57.183Z,64.20
2024-05-09T09:40:31.033Z,63.05
2024-05-09T09:42:59.125Z,61.37
2024-05-09T09:45:25.597Z,59.81
2024-05-09T09:47:52.261Z,59.68
2024-05-09T09:50:24.103Z,61.05
2024-05-09T09:52:58.055Z,62.30
2024-05-09T09:55:24.610Z,62.37
2024-05-09T09:57:51.116Z,61.28
2024-05-09T10:00:24.435Z,58.20
2024-05-09T10:02:57.037Z,59.72
2024-05-09T10:05:23.735Z,60.49
2024-05-09T10:07:50.423Z,59.07
2024-05-09T10:10:22.944Z,58.74
2024-05-09T10:12:53.914Z,58.85
2024-05-09T10:15:20.485Z,58.33
2024-05-09T10:17:47.061Z,56.49
2024-05-09T10:20:21.346Z,54.75
2024-05-09T10:22:51.407Z,53.88
2024-05-09T10:25:17.990Z,52.97
2024-05-09T10:27:44.544Z,54.62
2024-05-09T10:30:17.709Z,55.08
2024-05-09T10:32:48.075Z,56.94
2024-05-09T10:35:14.612Z,54.42
2024-05-09T10:37:41.073Z,56.75
2024-05-09T10:40:14.017Z,54.27
2024-05-09T10:42:43.822Z,52.22
2024-05-09T10:45:10.298Z,52.97
2024-05-09T10:47:36.866Z,52.11
2024-05-09T10:50:07.713Z,54.12
2024-05-09T10:52:36.593Z,54.05
2024-05-09T10:55:05.515Z,53.89
2024-05-09T10:57:32.366Z,54.39
2024-05-09T10:59:58.844Z,52.63
2024-05-09T11:02:25.587Z,52.75
2024-05-09T11:04:52.342Z,55.48
2024-05-09T11:07:19.024Z,55.37
2024-05-09T11:09:45.631Z,53.21
2024-05-09T11:12:12.227Z,53.23
2024-05-09T11:14:38.727Z,53.23
2024-05-09T11:17:05.229Z,53.39
2024-05-09T11:19:31.785Z,52.68
2024-05-09T11:21:58.413Z,52.81
2024-05-09T11:24:25.050Z,52.86
2024-05-09T11:26:51.581Z,53.80
2024-05-09T11:29:19.557Z,52.92
2024-05-09T11:31:46.485Z,54.66
2024-05-09T11:34:13.097Z,53.81
2024-05-09T11:36:39.722Z,54.84
2024-05-09T11:39:06.231Z,52.96
2024-05-09T11:41:32.706Z,53.82
2024-05-09T11:43:59.250Z,54.12
2024-05-09T11:46:25.880Z,53.87
2024-05-09T11:48:52.665Z,54.83
2024-05-09T11:51:19.223Z,54.25
2024-05-09T11:53:45.692Z,57.27
2024-05-09T11:56:12.202Z,55.26
2024-05-09T11:58:38.683Z,54.60
2024-05-09T12:01:05.288Z,55.09
2024-05-09T12:03:32.047Z,52.97
2024-05-09T12:05:59.007Z,53.99
2024-05-09T12:08:25.601Z,53.20
2024-05-09T12:10:52.218Z,53.91
2024-05-09T12:13:18.905Z,55.90
2024-05-09T12:15:45.555Z,55.02
2024-05-09T12:18:12.098Z,54.19
2024-05-09T12:20:40.054Z,53.42
2024-05-09T12:23:07.077Z,54.15
2024-05-09T12:25:33.835Z,53.17
2024-05-09T12:28:00.623Z,57.43
2024-05-09T12:30:35.566Z,52.76
2024-05-09T12:33:05.531Z,53.50
2024-05-09T12:35:32.201Z,54.52
2024-05-09T12:37:58.693Z,54.20
2024-05-09T12:40:34.288Z,55.96
2024-05-09T12:43:03.883Z,55.17
2024-05-09T12:45:30.454Z,57.14
2024-05-09T12:47:57.078Z,55.16
2024-05-09T12:50:29.949Z,55.77
2024-05-09T12:52:59.401Z,56.65
2024-05-09T12:55:25.931Z,55.97
2024-05-09T12:57:52.537Z,56.97
2024-05-09T13:00:24.094Z,55.82
2024-05-09T13:02:57.690Z,56.93
2024-05-09T13:05:24.594Z,56.15
2024-05-09T13:07:51.236Z,57.18
2024-05-09T13:10:25.565Z,58.62
2024-05-09T13:12:58.053Z,57.72
2024-05-09T13:15:24.543Z,55.68
2024-05-09T13:17:51.011Z,57.18
2024-05-09T13:20:26.069Z,55.38
2024-05-09T13:22:58.422Z,56.97
2024-05-09T13:25:24.909Z,56.09
2024-05-09T13:27:51.425Z,56.05
2024-05-09T13:30:26.074Z,56.04
2024-05-09T13:33:00.114Z,57.44
2024-05-09T13:35:26.615Z,55.68
2024-05-09T13:37:53.073Z,56.57
2024-05-09T13:40:27.258Z,56.87
2024-05-09T13:42:59.669Z,58.18
2024-05-09T13:45:26.190Z,58.39
2024-05-09T13:47:52.789Z,59.75
2024-05-09T13:50:28.018Z,58.24
2024-05-09T13:53:00.237Z,58.26
2024-05-09T13:55:26.710Z,56.55
2024-05-09T13:57:53.201Z,57.07
2024-05-09T14:00:31.824Z,56.39
2024-05-09T14:03:06.272Z,56.99
2024-05-09T14:05:33.189Z,56.54
2024-05-09T14:07:59.873Z,57.93
2024-05-09T14:10:31.002Z,57.02
2024-05-09T14:12:58.562Z,57.42
2024-05-09T14:15:25.064Z,56.69
2024-05-09T14:17:51.560Z,55.40
2024-05-09T14:20:28.192Z,57.65
2024-05-09T14:22:57.972Z,55.10
2024-05-09T14:25:24.506Z,55.09
2024-05-09T14:27:51.137Z,56.19
2024-05-09T14:30:25.810Z,54.60
2024-05-09T14:32:57.791Z,55.41
2024-05-09T14:35:24.329Z,55.22
2024-05-09T14:37:50.798Z,55.62
2024-05-09T14:40:30.653Z,55.63
2024-05-09T14:43:03.915Z,54.57
2024-05-09T14:45:30.540Z,54.88
2024-05-09T14:47:57.223Z,55.04
2024-05-09T14:50:32.320Z,55.60
2024-05-09T14:53:02.905Z,55.60
2024-05-09T14:55:29.446Z,56.16
2024-05-09T14:57:55.978Z,55.04
2024-05-09T15:00:28.677Z,54.85
2024-05-09T15:02:59.652Z,55.67
2024-05-09T15:05:26.310Z,55.22
2024-05-09T15:07:52.821Z,53.94
2024-05-09T15:10:26.914Z,55.12
2024-05-09T15:13:00.455Z,55.51
2024-05-09T15:15:27.005Z,54.97
2024-05-09T15:17:53.593Z,54.94
2024-05-09T15:20:27.769Z,54.07
2024-05-09T15:23:00.648Z,53.79
2024-05-09T15:25:27.130Z,55.14
2024-05-09T15:27:53.717Z,55.25
2024-05-09T15:30:28.208Z,54.24
2024-05-09T15:32:57.932Z,54.57
2024-05-09T15:35:24.464Z,54.64
2024-05-09T15:37:50.967Z,54.65
2024-05-09T15:40:26.259Z,54.46
2024-05-09T15:43:01.961Z,54.14
2024-05-09T15:45:28.550Z,54.80
2024-05-09T15:47:55.079Z,55.41
2024-05-09T15:50:31.983Z,55.47
2024-05-09T15:53:03.822Z,55.74
2024-05-09T15:55:30.320Z,54.53
2024-05-09T15:57:56.841Z,54.18
2024-05-09T16:00:29.103Z,53.67
2024-05-09T16:03:03.207Z,55.69
2024-05-09T16:05:29.819Z,54.66
2024-05-09T16:07:56.348Z,54.58
2024-05-09T16:10:26.143Z,55.14
2024-05-09T16:12:58.637Z,54.60
2024-05-09T16:15:25.180Z,54.92
2024-05-09T16:17:51.805Z,54.52
2024-05-09T16:20:28.990Z,55.88
2024-05-09T16:23:03.268Z,54.68
2024-05-09T16:25:29.727Z,54.50
2024-05-09T16:27:56.217Z,53.00
2024-05-09T16:30:31.417Z,53.02
2024-05-09T16:33:01.664Z,53.38
2024-05-09T16:35:28.292Z,54.54
2024-05-09T16:37:54.755Z,53.37
2024-05-09T16:40:29.669Z,53.57
2024-05-09T16:43:02.984Z,53.50
2024-05-09T16:45:29.545Z,53.23
2024-05-09T16:47:56.112Z,53.05
2024-05-09T16:50:29.199Z,52.88
2024-05-09T16:52:59.158Z,52.56
2024-05-09T16:55:25.759Z,53.36
2024-05-09T16:57:52.323Z,53.47
2024-05-09T17:00:30.738Z,53.61
2024-05-09T17:03:05.446Z,53.98
2024-05-09T17:05:32.106Z,54.34
2024-05-09T17:07:58.626Z,54.00
2024-05-09T17:10:31.730Z,54.88
2024-05-09T17:13:00.463Z,53.86
2024-05-09T17:15:27.011Z,54.29
2024-05-09T17:17:53.507Z,54.93
2024-05-09T17:20:29.313Z,54.49
2024-05-09T17:23:00.250Z,54.67
2024-05-09T17:25:26.811Z,54.97
2024-05-09T17:27:53.401Z,54.61
2024-05-09T17:30:28.629Z,55.00
2024-05-09T17:33:00.863Z,54.46
2024-05-09T17:35:27.410Z,54.27
2024-05-09T17:37:53.886Z,54.66
2024-05-09T17:40:30.047Z,54.73
2024-05-09T17:42:59.935Z,54.11
2024-05-09T17:45:26.454Z,54.33
2024-05-09T17:47:53.136Z,54.98
2024-05-09T17:50:27.342Z,55.42
2024-05-09T17:53:00.172Z,55.39
2024-05-09T17:55:26.765Z,54.90
2024-05-09T17:57:53.355Z,54.56
2024-05-09T18:00:28.862Z,54.79
2024-05-09T18:03:03.290Z,54.77
2024-05-09T18:05:30.009Z,54.09
2024-05-09T18:07:56.590Z,53.89
2024-05-09T18:10:29.783Z,53.75
2024-05-09T18:13:02.250Z,53.76
2024-05-09T18:15:28.832Z,53.87
2024-05-09T18:17:55.370Z,53.81
2024-05-09T18:20:32.563Z,54.09
2024-05-09T18:23:07.279Z,54.11
2024-05-09T18:25:33.766Z,53.66
2024-05-09T18:28:00.274Z,53.57
2024-05-09T18:30:32.480Z,53.61
2024-05-09T18:33:01.894Z,53.71
2024-05-09T18:35:28.555Z,53.72
2024-05-09T18:37:55.025Z,53.38
2024-05-09T18:40:31.124Z,53.22
2024-05-09T18:43:01.569Z,52.73
2024-05-09T18:45:28.088Z,53.36
2024-05-09T18:47:54.615Z,54.54
2024-05-09T18:50:31.616Z,55.16
2024-05-09T18:53:02.138Z,54.82
2024-05-09T18:55:28.626Z,54.41
2024-05-09T18:57:55.213Z,54.51
2024-05-09T19:00:31.486Z,54.39
2024-05-09T19:03:02.586Z,54.35
2024-05-09T19:05:29.388Z,53.91
2024-05-09T19:07:55.962Z,54.06
2024-05-09T19:10:26.104Z,53.80
2024-05-09T19:12:55.555Z,53.53
2024-05-09T19:15:22.031Z,53.11
2024-05-09T19:17:48.575Z,53.46
2024-05-09T19:20:24.883Z,52.93
2024-05-09T19:22:55.296Z,53.77
2024-05-09T19:25:21.832Z,53.94
2024-05-09T19:27:48.366Z,53.70
2024-05-09T19:30:24.943Z,54.08
2024-05-09T19:32:59.937Z,54.54
2024-05-09T19:35:26.443Z,54.16
2024-05-09T19:37:52.899Z,54.09
2024-05-09T19:40:25.143Z,53.84
2024-05-09T19:42:57.434Z,53.66
2024-05-09T19:45:23.943Z,53.92
2024-05-09T19:47:50.483Z,53.84
2024-05-09T19:50:23.196Z,53.49
2024-05-09T19:52:58.127Z,54.02
2024-05-09T19:55:24.598Z,53.36
2024-05-09T19:57:51.075Z,53.15
2024-05-09T20:00:22.344Z,53.13
2024-05-09T20:02:55.753Z,53.09
2024-05-09T20:05:22.522Z,53.38
2024-05-09T20:07:49.010Z,53.81
2024-05-09T20:10:23.301Z,53.99
2024-05-09T20:12:52.851Z,54.38
2024-05-09T20:15:19.347Z,54.34
2024-05-09T20:17:45.928Z,54.13
2024-05-09T20:20:23.442Z,53.84
2024-05-09T20:22:55.226Z,53.94
2024-05-09T20:25:21.750Z,53.57
2024-05-09T20:27:48.311Z,53.89
2024-05-09T20:30:21.348Z,54.16
2024-05-09T20:32:54.615Z,54.33
2024-05-09T20:35:21.220Z,54.42
2024-05-09T20:37:47.725Z,54.57
2024-05-09T20:40:21.211Z,54.49
2024-05-09T20:42:52.197Z,54.97
2024-05-09T20:45:18.674Z,55.47
2024-05-09T20:47:45.268Z,55.76
2024-05-09T20:50:20.572Z,55.87
2024-05-09T20:52:55.144Z,55.52
2024-05-09T20:55:21.737Z,55.99
2024-05-09T20:57:48.293Z,55.92
2024-05-09T21:00:18.864Z,56.09
2024-05-09T21:02:49.139Z,55.93
2024-05-09T21:05:15.875Z,56.12
2024-05-09T21:07:42.421Z,55.61
2024-05-09T21:10:15.561Z,55.55
2024-05-09T21:12:46.106Z,55.32
2024-05-09T21:15:12.635Z,55.57
2024-05-09T21:17:39.243Z,55.75
2024-05-09T21:20:11.424Z,55.44
2024-05-09T21:22:40.948Z,56.18
2024-05-09T21:25:07.443Z,56.76
2024-05-09T21:27:34.038Z,57.72
2024-05-09T21:30:00.611Z,57.48
2024-05-09T21:32:27.166Z,57.81
2024-05-09T21:34:53.739Z,57.80
2024-05-09T21:37:20.271Z,57.89
2024-05-09T21:39:46.760Z,58.05
2024-05-09T21:42:13.265Z,58.02
2024-05-09T21:44:39.746Z,58.26
2024-05-09T21:47:06.309Z,58.81
2024-05-09T21:49:32.957Z,58.60
2024-05-09T21:51:59.547Z,58.96
2024-05-09T21:54:26.064Z,59.40
2024-05-09T21:56:52.546Z,59.82
2024-05-09T21:59:19.027Z,59.53
2024-05-09T22:01:45.557Z,59.46
2024-05-09T22:04:12.223Z,59.65
2024-05-09T22:06:38.835Z,59.87
2024-05-09T22:09:05.364Z,60.01
2024-05-09T22:11:32.016Z,59.87
2024-05-09T22:13:58.499Z,59.52
2024-05-09T22:16:25.121Z,59.42
2024-05-09T22:18:51.963Z,60.26
2024-05-09T22:21:18.535Z,60.38
2024-05-09T22:23:45.006Z,60.75
2024-05-09T22:26:11.496Z,60.80
2024-05-09T22:28:37.956Z,60.44
2024-05-09T22:31:04.488Z,60.43
2024-05-09T22:33:31.362Z,60.03
2024-05-09T22:35:57.997Z,60.01
2024-05-09T22:38:24.470Z,60.02
2024-05-09T22:40:50.978Z,60.38
2024-05-09T22:43:18.031Z,60.54
2024-05-09T22:45:44.926Z,60.73
2024-05-09T22:48:11.561Z,61.21
2024-05-09T22:50:38.156Z,61.15
2024-05-09T22:53:04.667Z,61.83
2024-05-09T22:55:31.124Z,61.48
2024-05-09T22:57:57.690Z,61.20
2024-05-09T23:02:53.722Z,61.15
2024-05-09T23:05:20.378Z,60.83
2024-05-09T23:07:46.927Z,60.78
2024-05-09T23:10:20.795Z,60.26
2024-05-09T23:12:51.426Z,61.03
2024-05-09T23:15:17.909Z,61.33
2024-05-09T23:17:44.680Z,61.62
2024-05-09T23:20:11.808Z,61.23
2024-05-09T23:22:40.919Z,61.19
2024-05-09T23:25:07.425Z,61.20
2024-05-09T23:27:34.006Z,61.25
2024-05-09T23:30:00.471Z,61.42
2024-05-09T23:32:27.025Z,61.36
2024-05-09T23:34:53.625Z,60.82
2024-05-09T23:37:20.157Z,60.62
2024-05-09T23:39:46.644Z,61.23
2024-05-09T23:42:13.147Z,61.60
2024-05-09T23:44:39.597Z,61.39
2024-05-09T23:47:08.473Z,60.70
2024-05-09T23:49:36.697Z,60.88
2024-05-09T23:52:03.302Z,61.00
2024-05-09T23:54:29.772Z,62.06
2024-05-09T23:56:56.252Z,61.72
2024-05-09T23:59:22.724Z,61.23
